aviador You're here:

PAHN Decoded Metar

HAINES in AK, USA
Report Time2018-05-20 18:54:00
UTC Time2018-05-20 19:32:14
Flight Rules mvfr MVFR
Wind110° at 09 kt
W.Decomp.*RWY 08: 8.9 kt HW 1.6 kt RCW
W.Rank110° ranks 5
Current wind is below 110° avg. (9.2)
Visibility9999 m
Phenomena:N/A
Clouds:Broken 019 Hf
Overcast 050 Hf
Expected CloudBase > 1,200 ft AGL from Temp-Dew spread
Ceiling1,900 ft
Temp11°C (ISA -4)
Dew Point08°C (82% RH)
AAT7.3°C
QNH1009 hPa
Density Alt-177 ft
Elevation16 ft
Report Wrong Elevation
Raw Report
PAHN 201854Z AUTO 11009KT 10SM BKN019 OVC050 11/08 A2981 RMK AO2
RAE31 SLP095 P0000 T01110078 TSNO=

Extra information for PAHN:More info

Metar Taf Metar & Taf Last 4 Metars F.Rules Stats Wind Profile Meteogram Temp Stats Airport Information Weather charts Add Link Nearby VenuesMetar ALERT Operation Metar Decoded Social comments

AIRNAV info for PAHN